Time;durP1;ratioP1;P1;durP2;ratioP2;P2;SDS_P1;SDS_P2;PMS_P1;PMS_P2;Temp;Humidity;BMP_temperature;BMP_pressure;BME280_temperature;BME280_humidity;BME280_pressure;Samples;Min_cycle;Max_cycle;Signal;HPM_P1;HPM_P2
2022/04/03 00:01:28;;;;;;;4.57;2.50;;;9.60;76.90;;;;;;5013913;28;20053;-82
2022/04/03 00:03:54;;;;;;;4.72;2.13;;;9.60;76.60;;;;;;5014307;28;20482;-81
2022/04/03 00:06:20;;;;;;;4.03;2.70;;;9.70;77.10;;;;;;4996119;28;20099;-82
2022/04/03 00:08:46;;;;;;;3.75;2.45;;;9.70;77.00;;;;;;5014159;28;20038;-82
2022/04/03 00:11:12;;;;;;;2.97;2.08;;;9.60;76.70;;;;;;5018464;28;20042;-81
2022/04/03 00:13:38;;;;;;;4.90;2.80;;;9.60;76.70;;;;;;4996123;28;20173;-82
2022/04/03 00:16:06;;;;;;;5.10;2.45;;;9.70;76.70;;;;;;5013707;28;20034;-81
2022/04/03 00:18:33;;;;;;;2.85;2.13;;;9.60;76.30;;;;;;5012952;28;20389;-79
2022/04/03 00:20:59;;;;;;;3.55;2.15;;;9.70;74.50;;;;;;5013444;28;20041;-80
2022/04/03 00:23:26;;;;;;;4.63;2.35;;;9.70;75.40;;;;;;5013434;28;20084;-80
2022/04/03 00:25:52;;;;;;;2.65;2.15;;;9.70;74.40;;;;;;5013482;28;20034;-80
2022/04/03 00:28:18;;;;;;;3.58;2.17;;;9.70;74.90;;;;;;5012675;28;20045;-81
2022/04/03 00:30:44;;;;;;;4.25;2.10;;;9.70;74.20;;;;;;4994838;28;20056;-80
2022/04/03 00:33:13;;;;;;;4.45;2.05;;;9.80;74.60;;;;;;5012327;28;20458;-80
2022/04/03 00:35:39;;;;;;;4.32;2.35;;;9.70;73.90;;;;;;4995211;28;20033;-80
2022/04/03 00:38:06;;;;;;;9.25;2.45;;;9.80;74.00;;;;;;5011736;28;20041;-80
2022/04/03 00:40:32;;;;;;;2.20;1.75;;;9.70;73.70;;;;;;5005889;28;20068;-79
2022/04/03 00:42:59;;;;;;;3.53;2.22;;;9.70;73.50;;;;;;4995271;28;20042;-81
2022/04/03 00:45:24;;;;;;;3.08;2.08;;;9.70;74.60;;;;;;4995136;28;20084;-74
2022/04/03 00:47:56;;;;;;;4.90;2.78;;;9.70;74.10;;;;;;5012108;28;20033;-74
2022/04/03 00:50:23;;;;;;;4.32;1.83;;;9.60;74.00;;;;;;4995276;28;20498;-74
2022/04/03 00:52:49;;;;;;;3.88;2.17;;;9.60;74.50;;;;;;5012557;28;20390;-75
2022/04/03 00:55:15;;;;;;;5.78;2.33;;;9.60;74.70;;;;;;5011958;28;20053;-75
2022/04/03 00:57:43;;;;;;;5.00;2.42;;;9.60;74.50;;;;;;5012044;28;20056;-74
2022/04/03 01:00:09;;;;;;;4.25;2.35;;;9.50;73.80;;;;;;4994327;28;20049;-75
2022/04/03 01:02:36;;;;;;;3.63;2.63;;;9.40;74.30;;;;;;5011840;28;20072;-75
2022/04/03 01:05:02;;;;;;;3.85;2.47;;;9.40;74.10;;;;;;5012283;28;20483;-75
2022/04/03 01:07:28;;;;;;;3.75;2.60;;;9.40;74.00;;;;;;5010711;28;20099;-75
2022/04/03 01:09:53;;;;;;;4.47;2.72;;;9.40;74.30;;;;;;4994415;28;20494;-74
2022/04/03 01:12:19;;;;;;;2.78;2.45;;;9.40;74.30;;;;;;4994626;28;20033;-74
2022/04/03 01:14:45;;;;;;;5.13;2.90;;;9.40;74.20;;;;;;5012401;28;20048;-74
2022/04/03 01:17:13;;;;;;;4.13;2.30;;;9.50;74.30;;;;;;5012395;28;20092;-75
2022/04/03 01:19:39;;;;;;;2.95;2.03;;;9.50;73.80;;;;;;5012548;28;20026;-75
2022/04/03 01:22:06;;;;;;;5.13;2.33;;;9.50;74.10;;;;;;5011906;28;20065;-75
2022/04/03 01:24:32;;;;;;;5.32;2.88;;;9.50;73.90;;;;;;4991165;28;20373;-75
2022/04/03 01:26:58;;;;;;;4.32;2.42;;;9.50;73.60;;;;;;5012458;28;20040;-76
2022/04/03 01:29:24;;;;;;;4.85;2.58;;;9.50;73.90;;;;;;5011811;28;20128;-76
2022/04/03 01:31:51;;;;;;;3.25;2.40;;;9.50;73.70;;;;;;5011829;28;20050;-76
2022/04/03 01:34:18;;;;;;;3.80;2.47;;;9.50;73.40;;;;;;4994104;28;20490;-76
2022/04/03 01:36:45;;;;;;;3.90;2.47;;;9.50;73.20;;;;;;5012121;28;20030;-76
2022/04/03 01:39:11;;;;;;;3.67;2.13;;;9.50;74.80;;;;;;5011363;28;20033;-76
2022/04/03 01:41:38;;;;;;;4.30;2.70;;;9.50;73.40;;;;;;5011303;28;20030;-76
2022/04/03 01:44:09;;;;;;;4.15;2.67;;;9.50;73.70;;;;;;5011541;28;20048;-75
2022/04/03 01:46:37;;;;;;;3.70;2.33;;;9.50;74.70;;;;;;5007760;28;20095;-75
2022/04/03 01:49:04;;;;;;;4.55;2.72;;;9.50;74.20;;;;;;5014971;28;20525;-75
2022/04/03 01:51:31;;;;;;;3.70;2.33;;;9.40;74.40;;;;;;4997443;28;20038;-75
2022/04/03 01:53:56;;;;;;;5.97;2.20;;;9.40;74.20;;;;;;5015546;28;20092;-75
2022/04/03 01:56:22;;;;;;;3.90;2.60;;;9.40;74.00;;;;;;5015539;28;20050;-75
2022/04/03 01:58:48;;;;;;;3.95;2.33;;;9.20;74.70;;;;;;4996560;28;20482;-74
2022/04/03 02:01:14;;;;;;;3.30;2.55;;;9.20;74.60;;;;;;5015505;28;20038;-75
2022/04/03 02:03:39;;;;;;;6.03;3.13;;;9.20;75.10;;;;;;5015247;28;20034;-75
2022/04/03 02:06:05;;;;;;;4.45;3.05;;;9.30;75.40;;;;;;5014761;28;20178;-74
2022/04/03 02:08:32;;;;;;;4.35;2.70;;;9.30;75.00;;;;;;5006723;28;20030;-75
2022/04/03 02:10:58;;;;;;;3.50;2.58;;;9.20;75.30;;;;;;5015304;28;20048;-75
2022/04/03 02:13:24;;;;;;;7.18;3.22;;;9.20;75.80;;;;;;5015429;28;20088;-75
2022/04/03 02:15:50;;;;;;;6.15;2.97;;;9.20;75.40;;;;;;5015032;28;20026;-74
2022/04/03 02:18:16;;;;;;;5.75;3.15;;;9.10;75.20;;;;;;5014668;28;20527;-75
2022/04/03 02:20:41;;;;;;;6.10;3.17;;;8.90;75.70;;;;;;5015632;28;20481;-75
2022/04/03 02:23:07;;;;;;;5.30;3.00;;;8.70;77.00;;;;;;5015184;28;20460;-75
2022/04/03 02:25:33;;;;;;;4.10;3.13;;;8.80;76.70;;;;;;4997188;28;20038;-76
2022/04/03 02:27:59;;;;;;;6.80;2.90;;;8.80;76.70;;;;;;5014665;28;20433;-76
2022/04/03 02:30:25;;;;;;;3.80;2.72;;;8.80;76.10;;;;;;5014901;28;20056;-75
2022/04/03 02:32:51;;;;;;;5.05;3.22;;;8.80;76.70;;;;;;5014839;28;20572;-76
2022/04/03 02:35:17;;;;;;;5.28;3.53;;;8.80;75.90;;;;;;5014283;28;20128;-75
2022/04/03 02:37:43;;;;;;;3.83;2.92;;;8.70;76.40;;;;;;5014942;28;20038;-75
2022/04/03 02:40:12;;;;;;;4.13;2.80;;;8.60;76.80;;;;;;5014726;28;20072;-75
2022/04/03 02:42:38;;;;;;;5.25;3.25;;;8.50;78.20;;;;;;5014058;28;20041;-75
2022/04/03 02:45:05;;;;;;;6.68;3.20;;;8.60;77.30;;;;;;5014473;28;20049;-75
2022/04/03 02:47:32;;;;;;;5.20;3.10;;;8.70;76.90;;;;;;5014428;28;20061;-75
2022/04/03 02:50:11;;;;;;;5.53;3.40;;;8.60;77.00;;;;;;5014847;28;20030;-75
2022/04/03 02:52:36;;;;;;;4.18;2.60;;;8.50;77.40;;;;;;4993934;28;20494;-75
2022/04/03 02:55:04;;;;;;;5.00;3.50;;;8.50;77.40;;;;;;5014664;28;20064;-76
2022/04/03 02:57:30;;;;;;;5.18;3.08;;;8.50;77.30;;;;;;5009216;28;20029;-75
2022/04/03 02:59:56;;;;;;;4.43;2.97;;;8.50;77.60;;;;;;5014045;28;20041;-75
2022/04/03 03:02:22;;;;;;;4.30;3.20;;;8.40;77.70;;;;;;5013403;28;20037;-76
2022/04/03 03:04:48;;;;;;;4.35;3.13;;;8.40;77.40;;;;;;5014445;28;20497;-75
2022/04/03 03:07:14;;;;;;;5.18;3.10;;;8.30;78.40;;;;;;5002604;28;20042;-75
2022/04/03 03:09:40;;;;;;;6.72;3.90;;;8.30;77.90;;;;;;5014724;28;20045;-76
2022/04/03 03:12:07;;;;;;;7.55;4.55;;;8.30;77.40;;;;;;5013671;28;20433;-75
2022/04/03 03:14:33;;;;;;;7.57;4.20;;;8.30;77.50;;;;;;5014293;28;20042;-76
2022/04/03 03:17:01;;;;;;;6.30;3.72;;;8.40;77.50;;;;;;5014597;28;20042;-76
2022/04/03 03:19:26;;;;;;;4.65;3.05;;;8.50;77.50;;;;;;5013987;28;20049;-76
2022/04/03 03:21:52;;;;;;;6.07;3.67;;;8.50;77.10;;;;;;5013702;28;20485;-76
2022/04/03 03:24:18;;;;;;;3.35;3.03;;;8.40;76.90;;;;;;5013950;28;20041;-75
2022/04/03 03:26:43;;;;;;;4.72;3.20;;;8.40;77.10;;;;;;4996377;28;20046;-76
2022/04/03 03:29:09;;;;;;;4.68;2.60;;;8.50;77.30;;;;;;5013514;28;20379;-76
2022/04/03 03:31:35;;;;;;;4.25;2.97;;;8.60;76.90;;;;;;5013940;28;20045;-75
2022/04/03 03:34:01;;;;;;;4.00;2.53;;;8.60;76.20;;;;;;5013504;28;20127;-75
2022/04/03 03:36:26;;;;;;;4.38;2.72;;;8.70;76.10;;;;;;5013121;28;20038;-75
2022/04/03 03:38:52;;;;;;;4.85;2.85;;;8.80;75.40;;;;;;5014194;28;20418;-75
2022/04/03 03:41:18;;;;;;;3.08;2.78;;;8.80;75.60;;;;;;5013770;28;20062;-75
2022/04/03 03:43:43;;;;;;;4.35;2.90;;;8.70;74.90;;;;;;5013278;28;20030;-75
2022/04/03 03:46:10;;;;;;;3.78;2.47;;;8.70;75.80;;;;;;5012828;28;20037;-74
2022/04/03 03:48:36;;;;;;;5.55;2.72;;;8.80;76.00;;;;;;4995774;28;20033;-74
2022/04/03 03:51:03;;;;;;;5.50;2.63;;;8.80;75.50;;;;;;4995899;28;20066;-75
2022/04/03 03:53:29;;;;;;;4.88;3.10;;;9.00;75.30;;;;;;5014118;28;20104;-74
2022/04/03 03:55:56;;;;;;;4.63;2.83;;;8.90;75.00;;;;;;5013920;28;20041;-75
2022/04/03 03:58:22;;;;;;;3.95;3.00;;;8.90;75.40;;;;;;4996149;28;20072;-76
2022/04/03 04:00:47;;;;;;;3.45;2.33;;;8.90;74.30;;;;;;5014067;28;20042;-75
2022/04/03 04:03:13;;;;;;;3.53;3.15;;;8.80;74.80;;;;;;5012187;28;20026;-75
2022/04/03 04:05:40;;;;;;;3.28;2.75;;;8.70;74.10;;;;;;5013536;28;20112;-75
2022/04/03 04:08:07;;;;;;;3.50;2.58;;;8.70;74.50;;;;;;5011886;28;20038;-74
2022/04/03 04:10:33;;;;;;;3.42;2.88;;;8.60;74.40;;;;;;5012984;28;20110;-75
2022/04/03 04:12:58;;;;;;;6.00;3.08;;;8.70;74.30;;;;;;5013428;28;20038;-75
2022/04/03 04:15:27;;;;;;;4.40;3.15;;;8.70;74.40;;;;;;4994813;28;20038;-75
2022/04/03 04:17:56;;;;;;;3.13;2.83;;;8.90;74.40;;;;;;5012974;28;20045;-74
2022/04/03 04:20:23;;;;;;;3.72;2.95;;;8.90;73.80;;;;;;5012965;28;20486;-75
2022/04/03 04:22:50;;;;;;;4.95;3.10;;;8.90;73.50;;;;;;5013331;28;20078;-74
2022/04/03 04:25:17;;;;;;;3.95;2.92;;;8.90;73.50;;;;;;5012694;28;20041;-75
2022/04/03 04:27:44;;;;;;;5.80;3.22;;;9.00;74.00;;;;;;5012985;28;20474;-74
2022/04/03 04:30:11;;;;;;;9.20;3.35;;;9.00;73.50;;;;;;5012242;28;20052;-76
2022/04/03 04:32:37;;;;;;;3.47;2.60;;;8.90;72.50;;;;;;5012604;28;20034;-76
2022/04/03 04:35:04;;;;;;;3.67;3.10;;;9.00;73.20;;;;;;5011927;28;20092;-75
2022/04/03 04:37:31;;;;;;;6.22;2.90;;;9.00;73.10;;;;;;5009646;28;20034;-75
2022/04/03 04:39:57;;;;;;;3.58;2.75;;;9.00;73.20;;;;;;5012604;28;20080;-76
2022/04/03 04:42:23;;;;;;;3.60;2.70;;;9.10;72.90;;;;;;5012111;28;20034;-75
2022/04/03 04:44:49;;;;;;;4.22;2.53;;;9.10;72.90;;;;;;5012364;28;20049;-76
2022/04/03 04:47:14;;;;;;;3.50;2.53;;;9.10;73.00;;;;;;5012088;28;20045;-76
2022/04/03 04:49:40;;;;;;;3.83;2.90;;;9.10;72.20;;;;;;5012204;28;20041;-76
2022/04/03 04:52:06;;;;;;;3.53;2.60;;;9.00;71.90;;;;;;5012178;28;20030;-76
2022/04/03 04:54:32;;;;;;;3.33;2.40;;;9.00;72.80;;;;;;5012389;28;20040;-77
2022/04/03 04:56:58;;;;;;;5.60;2.70;;;9.10;72.00;;;;;;4994291;28;20022;-78
2022/04/03 04:59:25;;;;;;;4.45;2.60;;;9.10;70.90;;;;;;5012820;28;20058;-76
2022/04/03 05:01:56;;;;;;;2.88;2.25;;;9.20;71.50;;;;;;4995041;28;20037;-76
2022/04/03 05:04:22;;;;;;;5.75;2.45;;;9.10;71.50;;;;;;5011669;28;20057;-78
2022/04/03 05:06:48;;;;;;;3.60;2.50;;;9.10;71.60;;;;;;4999774;28;20128;-78
2022/04/03 05:09:14;;;;;;;3.13;2.63;;;9.10;71.60;;;;;;4995979;28;20472;-76
2022/04/03 05:11:41;;;;;;;4.13;2.90;;;9.00;71.90;;;;;;5012404;28;20036;-77
2022/04/03 05:14:06;;;;;;;6.28;3.17;;;9.00;71.90;;;;;;5012155;28;20045;-76
2022/04/03 05:16:32;;;;;;;4.55;2.90;;;8.80;72.10;;;;;;5012179;28;20084;-77
2022/04/03 05:18:58;;;;;;;3.10;2.53;;;8.80;73.30;;;;;;5012244;28;20033;-77
2022/04/03 05:21:24;;;;;;;3.60;2.60;;;8.80;73.40;;;;;;5012289;28;20037;-78
2022/04/03 05:23:50;;;;;;;4.72;3.10;;;8.80;73.20;;;;;;5012518;28;20030;-77
2022/04/03 05:26:17;;;;;;;5.68;3.33;;;8.80;73.60;;;;;;5011559;28;20444;-76
2022/04/03 05:28:43;;;;;;;4.28;2.47;;;8.80;74.00;;;;;;5011851;28;20042;-76
2022/04/03 05:31:10;;;;;;;4.60;2.90;;;8.80;73.30;;;;;;5012205;28;20406;-76
2022/04/03 05:33:36;;;;;;;2.83;2.40;;;8.90;74.10;;;;;;5011334;28;20045;-76
2022/04/03 05:36:02;;;;;;;4.20;2.90;;;8.90;73.10;;;;;;5004361;28;20042;-77
2022/04/03 05:38:28;;;;;;;3.33;2.63;;;9.00;73.10;;;;;;5011109;28;20195;-76
2022/04/03 05:40:54;;;;;;;5.90;2.95;;;9.00;72.10;;;;;;5012441;28;20117;-77
2022/04/03 05:43:19;;;;;;;4.47;3.30;;;9.00;72.10;;;;;;5012191;28;20053;-76
2022/04/03 05:45:45;;;;;;;4.78;3.58;;;9.00;71.90;;;;;;5011519;28;20038;-77
2022/04/03 05:48:11;;;;;;;2.72;2.40;;;9.00;71.90;;;;;;5011616;28;20041;-77
2022/04/03 05:50:37;;;;;;;5.15;3.28;;;9.00;72.40;;;;;;5012039;28;20117;-77
2022/04/03 05:53:04;;;;;;;3.45;2.50;;;9.10;71.90;;;;;;5012058;28;20160;-76
2022/04/03 05:55:30;;;;;;;3.72;2.55;;;9.10;70.60;;;;;;4993746;28;20038;-75
2022/04/03 05:57:55;;;;;;;5.85;3.15;;;9.20;71.50;;;;;;5011692;28;20030;-75
2022/04/03 06:00:23;;;;;;;3.55;2.85;;;9.30;70.70;;;;;;5011068;28;20046;-76
2022/04/03 06:02:57;;;;;;;9.48;3.35;;;9.30;70.60;;;;;;5012304;28;20038;-75
2022/04/03 06:05:25;;;;;;;2.65;2.42;;;9.40;70.20;;;;;;5011371;28;20038;-75
2022/04/03 06:07:51;;;;;;;3.65;2.70;;;9.40;69.90;;;;;;5011749;28;20038;-76
2022/04/03 06:10:19;;;;;;;3.60;2.83;;;9.50;70.10;;;;;;5011291;28;20897;-76
2022/04/03 06:13:13;;;;;;;5.05;3.15;;;9.50;69.30;;;;;;5011944;28;20117;-76
2022/04/03 06:15:40;;;;;;;4.15;2.75;;;9.60;69.50;;;;;;5010208;28;20034;-75
2022/04/03 06:18:14;;;;;;;3.10;2.25;;;9.60;69.70;;;;;;5011507;28;20042;-76
2022/04/03 06:20:41;;;;;;;3.10;2.50;;;9.60;68.30;;;;;;5012159;28;20030;-76
2022/04/03 06:23:12;;;;;;;3.25;2.38;;;9.70;68.70;;;;;;5012027;28;20030;-76
2022/04/03 06:25:37;;;;;;;9.05;3.40;;;9.70;67.50;;;;;;5011904;28;20050;-74
2022/04/03 06:28:19;;;;;;;4.90;2.67;;;9.80;68.20;;;;;;5011723;28;20088;-77
2022/04/03 06:30:46;;;;;;;3.13;2.38;;;9.80;66.90;;;;;;4993509;28;20509;-78
2022/04/03 06:33:12;;;;;;;2.85;2.25;;;9.80;67.40;;;;;;4997131;28;20077;-78
2022/04/03 06:35:38;;;;;;;9.07;2.72;;;9.90;68.70;;;;;;5015201;28;20030;-79
2022/04/03 06:38:04;;;;;;;3.65;2.35;;;10.00;67.40;;;;;;4997201;28;20042;-78
2022/04/03 06:40:33;;;;;;;4.28;2.22;;;10.00;68.20;;;;;;5014800;28;20145;-79
2022/04/03 06:42:59;;;;;;;4.60;2.22;;;10.00;67.90;;;;;;5015132;28;20417;-78
2022/04/03 06:45:26;;;;;;;2.88;2.38;;;10.00;67.10;;;;;;5014495;28;20121;-73
2022/04/03 06:47:52;;;;;;;2.65;1.88;;;10.10;68.50;;;;;;5014519;28;20038;-81
2022/04/03 06:50:20;;;;;;;2.95;2.22;;;10.20;66.80;;;;;;4993560;28;20046;-79
2022/04/03 06:52:46;;;;;;;3.42;1.60;;;10.20;66.50;;;;;;4997176;28;20076;-78
2022/04/03 06:55:12;;;;;;;2.65;2.17;;;10.20;66.40;;;;;;4996839;28;20058;-77
2022/04/03 06:57:38;;;;;;;6.90;2.45;;;10.20;66.10;;;;;;4996755;28;20521;-77
2022/04/03 07:00:08;;;;;;;2.92;2.08;;;10.30;66.70;;;;;;5014974;28;20397;-78
2022/04/03 07:02:35;;;;;;;4.63;1.88;;;10.30;66.10;;;;;;5013769;28;20026;-78
2022/04/03 07:05:02;;;;;;;3.42;1.70;;;10.40;65.80;;;;;;5014558;28;20029;-79
2022/04/03 07:07:28;;;;;;;35.97;3.92;;;10.50;65.20;;;;;;5013959;28;20118;-79
2022/04/03 07:09:53;;;;;;;3.65;1.75;;;10.70;73.10;;;;;;5017640;28;20470;-79
2022/04/03 07:12:21;;;;;;;3.60;1.60;;;10.80;64.90;;;;;;4995250;28;20462;-78
2022/04/03 07:15:15;;;;;;;4.95;1.70;;;10.80;67.50;;;;;;4997349;28;20084;-77
2022/04/03 07:17:43;;;;;;;3.08;1.60;;;11.00;64.90;;;;;;4990284;28;20504;-72
2022/04/03 07:20:13;;;;;;;2.80;1.55;;;11.00;62.70;;;;;;5000079;28;20065;-72
2022/04/03 07:22:42;;;;;;;3.15;1.67;;;11.10;61.70;;;;;;5012684;28;20100;-77
2022/04/03 07:25:09;;;;;;;4.35;1.55;;;11.10;61.40;;;;;;4995832;28;20457;-75
2022/04/03 07:27:35;;;;;;;2.78;1.65;;;11.10;60.60;;;;;;5024746;28;20461;-73
2022/04/03 07:30:01;;;;;;;7.78;1.58;;;11.10;60.50;;;;;;5019079;28;20034;-75
2022/04/03 07:32:26;;;;;;;5.40;1.80;;;11.20;68.40;;;;;;4995529;28;20042;-76
2022/04/03 07:34:52;;;;;;;4.15;1.88;;;11.30;61.70;;;;;;5014121;28;20477;-75
2022/04/03 07:37:18;;;;;;;2.67;1.88;;;11.40;60.30;;;;;;4996648;28;20029;-76
2022/04/03 07:39:43;;;;;;;2.55;1.95;;;11.40;60.90;;;;;;5014576;28;20124;-75
2022/04/03 07:42:09;;;;;;;3.50;1.77;;;11.40;59.40;;;;;;5001187;28;20358;-75
2022/04/03 07:44:35;;;;;;;1.90;1.60;;;11.50;59.30;;;;;;5020851;28;20048;-81
2022/04/03 07:47:01;;;;;;;4.00;1.77;;;11.50;58.20;;;;;;5021174;28;20040;-80
2022/04/03 07:49:27;;;;;;;3.78;2.08;;;11.60;57.50;;;;;;5020599;28;20045;-81
2022/04/03 07:51:53;;;;;;;4.35;1.85;;;11.60;56.80;;;;;;5014400;28;20494;-82
2022/04/03 07:54:19;;;;;;;2.47;1.60;;;11.80;58.20;;;;;;5014750;28;20558;-82
2022/04/03 07:56:44;;;;;;;2.92;1.90;;;11.90;57.80;;;;;;5014891;28;20040;-82
2022/04/03 07:59:10;;;;;;;4.20;1.63;;;12.00;56.50;;;;;;5014796;28;20038;-81
2022/04/03 08:01:35;;;;;;;3.70;1.75;;;12.10;56.20;;;;;;5014311;28;20030;-80
2022/04/03 08:04:01;;;;;;;4.47;1.90;;;12.20;55.20;;;;;;5014612;28;20129;-80
2022/04/03 08:06:27;;;;;;;3.05;1.90;;;12.20;56.50;;;;;;5014336;28;20034;-80
2022/04/03 08:08:53;;;;;;;2.60;1.77;;;12.30;56.00;;;;;;4996889;28;20383;-80
2022/04/03 08:11:19;;;;;;;4.95;1.98;;;12.50;54.80;;;;;;5014875;28;20039;-74
2022/04/03 08:13:47;;;;;;;4.35;2.08;;;12.50;54.80;;;;;;5014701;28;20101;-74
2022/04/03 08:16:14;;;;;;;2.22;1.75;;;12.60;54.80;;;;;;5014263;28;20030;-74
2022/04/03 08:18:41;;;;;;;4.47;1.52;;;12.70;55.00;;;;;;4996517;28;20065;-79
2022/04/03 08:21:06;;;;;;;2.95;1.73;;;12.80;53.80;;;;;;5014571;28;20053;-81
2022/04/03 08:23:32;;;;;;;3.80;2.05;;;12.90;52.20;;;;;;5014493;28;20030;-80
2022/04/03 08:25:58;;;;;;;4.18;1.98;;;13.00;52.10;;;;;;5014230;28;20445;-80
2022/04/03 08:28:23;;;;;;;3.08;1.80;;;13.10;53.40;;;;;;5014017;28;20521;-74
2022/04/03 08:30:49;;;;;;;3.20;1.75;;;13.20;52.30;;;;;;5014112;28;20084;-74
2022/04/03 08:33:15;;;;;;;7.65;2.42;;;13.40;53.40;;;;;;5013532;28;20144;-75
2022/04/03 08:35:41;;;;;;;2.90;2.60;;;13.40;53.60;;;;;;5013686;28;20393;-74
2022/04/03 08:38:10;;;;;;;5.28;2.83;;;13.50;53.70;;;;;;4995957;28;20114;-76
2022/04/03 08:40:36;;;;;;;9.38;3.13;;;13.60;53.10;;;;;;5013543;28;20048;-77
2022/04/03 08:43:03;;;;;;;2.97;2.08;;;13.90;65.00;;;;;;4995116;28;20129;-74
2022/04/03 08:45:29;;;;;;;4.13;2.25;;;14.10;61.60;;;;;;5019701;28;20042;-80
2022/04/03 08:47:57;;;;;;;3.63;2.20;;;14.10;53.10;;;;;;5023798;28;20033;-80
2022/04/03 08:50:33;;;;;;;3.97;2.42;;;14.20;51.50;;;;;;5021276;28;20030;-80
2022/04/03 08:53:01;;;;;;;4.47;2.15;;;14.10;49.90;;;;;;5020322;28;20470;-76
2022/04/03 08:55:28;;;;;;;3.08;2.15;;;14.00;52.20;;;;;;5019971;28;20029;-75
2022/04/03 08:57:54;;;;;;;7.05;2.63;;;14.00;52.10;;;;;;5021128;28;20470;-75
2022/04/03 09:00:20;;;;;;;4.20;2.25;;;14.00;53.10;;;;;;5003338;28;20434;-75
2022/04/03 09:02:46;;;;;;;4.15;2.08;;;14.00;53.20;;;;;;5017494;28;20030;-81
2022/04/03 09:05:12;;;;;;;3.75;2.22;;;13.90;51.00;;;;;;5011793;28;20085;-81
2022/04/03 09:07:38;;;;;;;3.45;2.20;;;13.90;50.00;;;;;;5012085;28;20037;-81
2022/04/03 09:10:10;;;;;;;3.08;2.08;;;13.70;51.20;;;;;;5018383;28;20049;-81
2022/04/03 09:13:02;;;;;;;6.68;2.78;;;13.60;51.70;;;;;;5020206;28;20056;-81
2022/04/03 09:15:29;;;;;;;3.78;1.88;;;13.60;52.70;;;;;;5015315;28;20052;-80
2022/04/03 09:17:57;;;;;;;2.33;1.63;;;13.60;51.40;;;;;;5021332;28;20030;-80
2022/04/03 09:20:25;;;;;;;3.28;1.40;;;13.70;51.40;;;;;;5017317;28;20100;-80
2022/04/03 09:23:00;;;;;;;5.15;2.50;;;13.90;51.70;;;;;;5014700;28;20470;-81
2022/04/03 09:25:31;;;;;;;2.97;2.25;;;14.20;51.40;;;;;;5016563;28;20038;-76
2022/04/03 09:27:59;;;;;;;3.58;2.10;;;14.40;52.80;;;;;;5017613;28;20041;-76
2022/04/03 09:30:45;;;;;;;3.90;2.05;;;14.70;52.10;;;;;;5012359;28;20054;-76
2022/04/03 09:33:19;;;;;;;2.38;2.10;;;14.80;49.00;;;;;;5019252;28;20041;-80
2022/04/03 09:35:57;;;;;;;4.65;2.25;;;15.10;48.70;;;;;;5016682;28;20042;-80
2022/04/03 09:38:27;;;;;;;4.35;2.47;;;15.30;48.70;;;;;;5011484;28;20034;-81
2022/04/03 09:40:53;;;;;;;3.22;2.15;;;15.50;47.00;;;;;;5008307;28;20423;-81
2022/04/03 09:43:25;;;;;;;4.45;2.45;;;15.60;48.30;;;;;;5016527;28;20481;-80
2022/04/03 09:46:01;;;;;;;3.00;2.00;;;15.70;47.80;;;;;;5013221;28;20045;-81
2022/04/03 09:48:32;;;;;;;6.60;2.50;;;15.60;46.30;;;;;;5010966;28;20065;-81
2022/04/03 09:51:06;;;;;;;5.70;2.53;;;15.70;58.10;;;;;;5012023;28;20275;-81
2022/04/03 09:53:43;;;;;;;4.90;2.95;;;15.80;47.80;;;;;;5012227;28;20049;-81
2022/04/03 09:56:11;;;;;;;4.82;2.60;;;15.60;45.60;;;;;;5011474;28;20561;-81
2022/04/03 09:58:49;;;;;;;4.53;2.50;;;15.40;46.00;;;;;;5012646;28;20072;-81
2022/04/03 18:55:21;;;;;;;7.00;1.92;;;12.70;52.00;;;;;;5016798;28;20048;-78
2022/04/03 18:57:47;;;;;;;8.23;2.08;;;12.70;53.60;;;;;;5005347;28;20038;-78
2022/04/03 19:00:13;;;;;;;7.57;3.00;;;12.70;51.90;;;;;;4987403;28;20053;-78
2022/04/03 19:02:39;;;;;;;5.05;2.63;;;12.70;52.20;;;;;;5004277;28;20070;-77
2022/04/03 19:05:05;;;;;;;6.53;2.22;;;12.70;54.20;;;;;;5009474;28;20120;-77
2022/04/03 19:07:31;;;;;;;4.93;2.80;;;12.70;54.20;;;;;;5010914;28;20397;-77
2022/04/03 19:10:05;;;;;;;7.10;2.90;;;12.70;55.50;;;;;;4993243;28;20053;-77
2022/04/03 19:12:30;;;;;;;6.38;2.50;;;12.80;53.40;;;;;;5009797;28;20038;-78
2022/04/03 19:14:56;;;;;;;4.03;2.72;;;12.80;54.20;;;;;;4982650;28;20054;-78
2022/04/03 19:17:22;;;;;;;5.50;2.50;;;12.80;53.60;;;;;;4988811;28;20034;-77
2022/04/03 19:19:48;;;;;;;7.38;2.97;;;12.80;54.90;;;;;;5010775;28;20038;-78
2022/04/03 19:22:14;;;;;;;4.68;2.80;;;12.80;54.00;;;;;;4994142;28;20397;-77
2022/04/03 19:24:40;;;;;;;4.53;2.42;;;12.80;55.60;;;;;;4990626;28;20100;-78
2022/04/03 19:27:07;;;;;;;3.50;2.80;;;12.80;54.00;;;;;;5012054;28;20034;-85
2022/04/03 19:29:36;;;;;;;5.30;2.88;;;12.80;54.30;;;;;;5006181;28;20046;-85
2022/04/03 19:32:04;;;;;;;4.93;2.60;;;12.80;55.20;;;;;;5002407;28;20044;-85
2022/04/03 19:34:31;;;;;;;9.20;3.00;;;12.80;53.80;;;;;;5000983;28;20073;-85
2022/04/03 19:36:57;;;;;;;6.70;2.90;;;12.80;54.50;;;;;;4996562;28;20058;-86
2022/04/03 19:39:23;;;;;;;6.20;2.80;;;12.80;54.90;;;;;;5014265;28;20066;-85
2022/04/03 19:41:49;;;;;;;4.60;2.92;;;12.70;55.70;;;;;;5014568;28;20480;-86
2022/04/03 19:44:14;;;;;;;6.72;3.35;;;12.70;54.20;;;;;;5010303;28;20552;-85
2022/04/03 19:46:40;;;;;;;6.60;2.95;;;12.70;55.20;;;;;;4990042;28;20181;-85
2022/04/03 19:49:06;;;;;;;3.30;2.08;;;12.60;55.20;;;;;;5012161;28;20088;-84
2022/04/03 19:51:32;;;;;;;9.73;3.03;;;12.60;53.70;;;;;;5012260;28;20057;-85
2022/04/03 19:53:58;;;;;;;5.10;2.85;;;12.60;54.20;;;;;;5014393;28;20049;-84
2022/04/03 19:56:24;;;;;;;4.75;2.53;;;12.60;55.60;;;;;;5010600;28;20038;-82
2022/04/03 19:58:50;;;;;;;4.75;2.55;;;12.60;55.40;;;;;;5002683;28;20069;-83
2022/04/03 20:01:16;;;;;;;7.95;3.58;;;12.70;56.50;;;;;;4993992;28;20405;-86
2022/04/03 20:03:42;;;;;;;6.07;2.72;;;12.60;56.60;;;;;;4995928;28;20037;-84
2022/04/03 20:06:07;;;;;;;7.95;2.92;;;12.50;56.70;;;;;;4995326;28;20050;-85
2022/04/03 20:08:34;;;;;;;6.20;3.33;;;12.50;56.50;;;;;;4996077;28;20038;-86
2022/04/03 20:11:01;;;;;;;6.72;2.90;;;12.50;56.80;;;;;;5013634;28;20042;-85
2022/04/03 20:13:27;;;;;;;5.57;3.15;;;12.50;56.80;;;;;;5012056;28;20108;-86
2022/04/03 20:15:53;;;;;;;6.93;2.85;;;12.50;56.90;;;;;;5013726;28;20045;-85
2022/04/03 20:18:19;;;;;;;6.43;2.80;;;12.50;57.30;;;;;;5008769;28;20033;-86
2022/04/03 20:20:46;;;;;;;7.55;3.28;;;12.50;57.20;;;;;;4995253;28;20401;-86
2022/04/03 20:23:15;;;;;;;5.35;2.85;;;12.60;57.70;;;;;;4995163;28;20037;-86
2022/04/03 20:25:43;;;;;;;6.70;2.72;;;12.50;57.40;;;;;;5010570;28;20041;-85
2022/04/03 20:28:11;;;;;;;3.35;2.35;;;12.50;56.90;;;;;;4992745;28;20044;-86
2022/04/03 20:30:38;;;;;;;5.35;2.95;;;12.50;56.40;;;;;;4988796;28;20042;-86
2022/04/03 20:33:05;;;;;;;6.45;2.65;;;12.50;57.60;;;;;;4979741;28;20037;-86
2022/04/03 20:35:30;;;;;;;4.57;2.50;;;12.40;57.00;;;;;;4983225;28;20045;-85
2022/04/03 20:37:57;;;;;;;7.40;2.95;;;12.50;57.40;;;;;;5003900;28;20030;-86
2022/04/03 20:40:25;;;;;;;7.75;2.72;;;12.40;57.70;;;;;;5012406;28;20048;-85
2022/04/03 20:42:52;;;;;;;6.07;2.40;;;12.40;56.70;;;;;;5009109;28;20038;-85
2022/04/03 20:45:19;;;;;;;8.27;2.65;;;12.40;57.20;;;;;;5015448;28;20049;-84
2022/04/03 20:47:45;;;;;;;6.47;2.60;;;12.40;56.10;;;;;;5013170;28;20126;-86
2022/04/03 20:50:11;;;;;;;6.00;2.67;;;12.30;56.40;;;;;;4994476;28;20037;-85
2022/04/03 20:52:37;;;;;;;2.83;2.10;;;12.30;56.00;;;;;;5007551;28;20042;-85
2022/04/03 20:55:04;;;;;;;4.47;2.15;;;12.30;57.50;;;;;;5006564;28;20050;-85
2022/04/03 20:57:30;;;;;;;4.13;2.10;;;12.30;56.20;;;;;;5012079;28;20030;-85
2022/04/03 20:59:55;;;;;;;3.75;2.40;;;12.30;55.70;;;;;;5011036;28;20382;-85
2022/04/03 21:02:22;;;;;;;6.35;2.08;;;12.30;55.90;;;;;;5010885;28;20122;-85
2022/04/03 21:04:48;;;;;;;7.13;1.98;;;12.40;57.70;;;;;;4993266;28;20045;-83
2022/04/03 21:07:14;;;;;;;3.92;2.60;;;12.30;56.20;;;;;;4993486;28;20125;-84
2022/04/03 21:09:40;;;;;;;7.72;2.85;;;12.30;55.50;;;;;;5014836;28;20045;-84
2022/04/03 21:12:06;;;;;;;4.43;2.33;;;12.30;56.30;;;;;;5012586;28;20034;-85
2022/04/03 21:14:32;;;;;;;4.18;2.33;;;12.30;56.70;;;;;;5013425;28;20053;-85
2022/04/03 21:17:00;;;;;;;4.18;1.90;;;12.30;57.10;;;;;;5011195;28;20041;-89
2022/04/03 21:19:26;;;;;;;4.70;2.38;;;12.30;57.20;;;;;;5025642;28;20049;-89
2022/04/03 21:21:52;;;;;;;6.03;2.58;;;12.30;56.20;;;;;;5012693;28;20586;-85
2022/04/03 21:24:18;;;;;;;5.07;2.28;;;12.20;57.60;;;;;;5004695;28;20065;-89
2022/04/03 21:26:44;;;;;;;3.88;2.10;;;12.20;56.60;;;;;;5000181;28;20548;-87
2022/04/03 21:29:10;;;;;;;4.40;2.60;;;12.20;57.90;;;;;;4994243;28;20045;-83
2022/04/03 21:31:36;;;;;;;10.05;2.70;;;12.10;58.90;;;;;;5013456;28;20030;-84
2022/04/03 21:34:03;;;;;;;3.83;2.38;;;12.10;58.40;;;;;;4994612;28;20474;-83
2022/04/03 21:36:31;;;;;;;8.02;2.45;;;12.10;58.80;;;;;;5013994;28;20113;-78
2022/04/03 21:38:57;;;;;;;4.70;2.53;;;12.10;57.60;;;;;;4992999;28;20044;-81
2022/04/03 21:41:26;;;;;;;6.32;2.80;;;12.00;58.90;;;;;;5011594;28;20120;-84
2022/04/03 21:43:52;;;;;;;5.53;3.30;;;12.00;59.70;;;;;;5007848;28;20034;-82
2022/04/03 21:46:20;;;;;;;5.15;2.50;;;12.00;59.00;;;;;;4992597;28;20045;-85